Time;durP1;ratioP1;P1;durP2;ratioP2;P2;SDS_P1;SDS_P2;PMS_P1;PMS_P2;Temp;Humidity;BMP_temperature;BMP_pressure;BME280_temperature;BME280_humidity;BME280_pressure;Samples;Min_cycle;Max_cycle;Signal;HPM_P1;HPM_P2
2021/12/27 00:01:15;;;;;;;2.92;2.35;;;-12.00;99.90;;;;;;4995609;28;20035;-71
2021/12/27 00:03:41;;;;;;;5.28;3.03;;;-12.00;99.90;;;;;;4995784;28;20158;-71
2021/12/27 00:06:09;;;;;;;4.45;2.72;;;-12.00;99.90;;;;;;4995621;28;20109;-71
2021/12/27 00:08:40;;;;;;;5.55;2.80;;;-12.10;99.90;;;;;;4995969;28;20037;-72
2021/12/27 00:11:07;;;;;;;6.10;2.92;;;-12.10;99.90;;;;;;4995724;28;20026;-73
2021/12/27 00:13:33;;;;;;;4.32;2.78;;;-12.00;99.90;;;;;;4995452;28;20142;-73
2021/12/27 00:15:59;;;;;;;2.97;2.50;;;-12.00;99.90;;;;;;4995681;28;20382;-71
2021/12/27 00:18:25;;;;;;;4.13;2.70;;;-12.10;99.90;;;;;;4995600;28;20025;-70
2021/12/27 00:20:51;;;;;;;4.10;2.72;;;-12.10;99.90;;;;;;4995576;28;20073;-69
2021/12/27 00:23:16;;;;;;;4.50;2.85;;;-12.10;99.90;;;;;;4995323;28;20026;-70
2021/12/27 00:25:42;;;;;;;2.40;2.20;;;-12.10;99.90;;;;;;4995407;28;20109;-70
2021/12/27 00:28:08;;;;;;;4.72;2.90;;;-12.10;99.90;;;;;;4995180;28;20014;-70
2021/12/27 00:30:34;;;;;;;3.58;2.40;;;-12.20;99.90;;;;;;4995197;28;20485;-70
2021/12/27 00:32:59;;;;;;;3.00;2.22;;;-12.20;99.90;;;;;;4994729;28;20046;-70
2021/12/27 00:35:26;;;;;;;5.90;2.25;;;-12.10;99.90;;;;;;4995083;28;20446;-74
2021/12/27 00:37:53;;;;;;;3.53;2.53;;;-12.20;99.90;;;;;;4995090;28;20053;-75
2021/12/27 00:40:19;;;;;;;4.20;2.45;;;-12.20;99.90;;;;;;4994965;28;20027;-75
2021/12/27 00:42:44;;;;;;;3.25;2.30;;;-12.10;99.90;;;;;;4995210;28;20081;-75
2021/12/27 00:45:11;;;;;;;5.15;2.70;;;-12.10;99.90;;;;;;4995058;28;20382;-76
2021/12/27 00:47:38;;;;;;;4.55;2.80;;;-12.10;99.90;;;;;;4993958;28;20068;-76
2021/12/27 00:50:05;;;;;;;4.32;2.67;;;-12.10;99.90;;;;;;4994737;28;20038;-76
2021/12/27 00:52:32;;;;;;;2.90;1.95;;;-12.10;99.90;;;;;;4994643;28;20359;-76
2021/12/27 00:54:59;;;;;;;5.10;2.63;;;-12.20;99.90;;;;;;4994521;28;20061;-77
2021/12/27 00:57:25;;;;;;;4.72;2.72;;;-12.20;99.90;;;;;;4994662;28;20022;-76
2021/12/27 00:59:50;;;;;;;3.58;2.22;;;-12.10;99.90;;;;;;4994910;28;20026;-76
2021/12/27 01:02:17;;;;;;;6.43;2.40;;;-12.10;99.90;;;;;;4994708;28;20057;-75
2021/12/27 01:04:43;;;;;;;4.90;2.70;;;-12.10;99.90;;;;;;4994572;28;20022;-74
2021/12/27 01:07:09;;;;;;;4.22;2.80;;;-12.10;99.90;;;;;;4994388;28;20026;-74
2021/12/27 01:09:56;;;;;;;4.07;2.78;;;-12.10;99.90;;;;;;4994749;28;20034;-74
2021/12/27 01:12:31;;;;;;;4.93;2.65;;;-12.10;99.90;;;;;;4994472;28;20413;-75
2021/12/27 01:17:46;;;;;;;5.30;2.70;;;-12.00;99.90;;;;;;4994679;28;20025;-76
2021/12/27 01:20:16;;;;;;;5.15;2.67;;;-12.10;99.90;;;;;;4994107;28;20117;-76
2021/12/27 01:22:42;;;;;;;5.32;2.58;;;-12.10;99.90;;;;;;4994324;28;20072;-76
2021/12/27 01:25:09;;;;;;;5.57;3.00;;;-12.20;99.90;;;;;;4994136;28;20026;-76
2021/12/27 01:27:35;;;;;;;2.97;2.33;;;-12.20;99.90;;;;;;4994177;28;20038;-75
2021/12/27 01:30:02;;;;;;;5.40;2.97;;;-12.20;99.90;;;;;;4994085;28;20022;-75
2021/12/27 01:32:32;;;;;;;4.00;2.35;;;-12.20;99.90;;;;;;4993986;28;20045;-75
2021/12/27 01:34:58;;;;;;;;;;;-12.10;99.90;;;;;;4994615;28;20046;-75
2021/12/27 01:37:24;;;;;;;4.03;2.15;;;-12.20;99.90;;;;;;4994064;28;20353;-75
2021/12/27 01:39:49;;;;;;;3.50;2.28;;;-12.20;99.90;;;;;;4993991;28;20034;-75
2021/12/27 01:42:15;;;;;;;3.83;2.40;;;-12.10;99.90;;;;;;4994068;28;20523;-75
2021/12/27 01:44:41;;;;;;;3.63;2.70;;;-12.10;99.90;;;;;;4993937;28;20105;-74
2021/12/27 01:47:09;;;;;;;6.55;2.65;;;-12.10;99.90;;;;;;4980517;28;20033;-74
2021/12/27 01:49:35;;;;;;;2.38;1.90;;;-12.10;99.90;;;;;;4974750;28;20515;-74
2021/12/27 01:52:02;;;;;;;4.03;2.75;;;-12.20;99.90;;;;;;4974130;28;20030;-74
2021/12/27 01:54:27;;;;;;;2.70;2.42;;;-12.20;99.90;;;;;;4974159;28;20039;-74
2021/12/27 01:56:53;;;;;;;4.95;2.85;;;-12.20;99.90;;;;;;4974122;28;20524;-73
2021/12/27 01:59:19;;;;;;;4.13;2.40;;;-12.20;99.90;;;;;;4973929;28;20031;-74
2021/12/27 02:01:45;;;;;;;3.92;2.65;;;-12.20;99.90;;;;;;4973943;28;20046;-74
2021/12/27 02:04:10;;;;;;;2.15;1.95;;;-12.30;99.90;;;;;;4974015;28;20030;-73
2021/12/27 02:06:36;;;;;;;3.47;2.00;;;-12.30;99.90;;;;;;4973975;28;20086;-74
2021/12/27 02:09:04;;;;;;;2.60;2.40;;;-12.30;99.90;;;;;;4973905;28;20033;-74
2021/12/27 02:11:34;;;;;;;4.25;2.50;;;-12.40;99.90;;;;;;4973892;28;20404;-74
2021/12/27 02:14:04;;;;;;;3.25;2.47;;;-12.40;99.90;;;;;;4973742;28;20041;-74
2021/12/27 02:16:30;;;;;;;2.78;2.33;;;-12.40;99.90;;;;;;4974037;28;20027;-74
2021/12/27 02:18:56;;;;;;;3.35;2.55;;;-12.40;99.90;;;;;;4972892;28;20034;-74
2021/12/27 02:21:23;;;;;;;3.67;2.30;;;-12.40;99.90;;;;;;4973804;28;20105;-73
2021/12/27 02:23:50;;;;;;;2.60;2.22;;;-12.40;99.90;;;;;;4973761;28;20088;-71
2021/12/27 02:52:55;;;;;;;2.30;1.90;;;-12.60;99.90;;;;;;4972928;28;20058;-70
2021/12/27 02:55:21;;;;;;;3.00;2.05;;;-12.50;99.90;;;;;;4973231;28;20513;-69
2021/12/27 02:57:50;;;;;;;2.22;2.03;;;-12.40;99.90;;;;;;4973251;28;20062;-70
2021/12/27 03:00:20;;;;;;;2.35;2.15;;;-12.50;99.90;;;;;;4973314;28;20482;-69
2021/12/27 03:02:48;;;;;;;2.70;2.42;;;-12.50;99.90;;;;;;4973157;28;20031;-69
2021/12/27 03:36:39;;;;;;;2.80;2.25;;;-12.50;99.90;;;;;;5929621;23;20022;-72
2021/12/27 03:39:10;;;;;;;3.25;2.30;;;-12.40;99.90;;;;;;4971203;28;20472;-72
2021/12/27 03:41:36;;;;;;;1.85;1.67;;;-12.40;99.90;;;;;;4972893;28;20051;-72
2021/12/27 03:44:03;;;;;;;2.90;2.13;;;-12.40;99.90;;;;;;4972816;28;20065;-72
2021/12/27 03:46:30;;;;;;;2.90;2.10;;;-12.50;99.90;;;;;;4971538;28;20367;-74
2021/12/27 03:48:56;;;;;;;3.78;2.25;;;-12.50;99.90;;;;;;4972707;28;20033;-77
2021/12/27 03:51:22;;;;;;;2.25;1.90;;;-12.50;99.90;;;;;;4972960;28;20106;-77
2021/12/27 03:53:48;;;;;;;2.33;1.92;;;-12.40;99.90;;;;;;4972913;28;20109;-76
2021/12/27 03:56:14;;;;;;;2.80;1.85;;;-12.40;99.90;;;;;;4972608;28;20454;-76
2021/12/27 03:58:53;;;;;;;3.17;2.33;;;-12.40;99.90;;;;;;4972843;28;20051;-78
2021/12/27 04:01:21;;;;;;;3.13;2.03;;;-12.40;99.90;;;;;;4972845;28;20094;-78
2021/12/27 04:03:49;;;;;;;3.05;2.33;;;-12.40;99.90;;;;;;4972905;28;20027;-78
2021/12/27 04:06:17;;;;;;;3.53;2.75;;;-12.40;99.90;;;;;;4972399;28;20566;-78
2021/12/27 04:08:43;;;;;;;2.25;1.90;;;-12.40;99.90;;;;;;4972575;28;20486;-78
2021/12/27 04:11:09;;;;;;;3.90;2.67;;;-12.30;99.90;;;;;;4972483;28;20023;-78
2021/12/27 04:13:36;;;;;;;3.33;2.25;;;-12.30;99.90;;;;;;4972586;28;20062;-77
2021/12/27 04:16:02;;;;;;;3.78;2.20;;;-12.30;99.90;;;;;;4972595;28;20030;-77
2021/12/27 04:18:28;;;;;;;5.60;1.92;;;-12.40;99.90;;;;;;4972593;28;20055;-77
2021/12/27 04:20:54;;;;;;;4.78;2.30;;;-12.40;99.90;;;;;;4971422;28;20489;-77
2021/12/27 04:23:20;;;;;;;2.92;2.33;;;-12.40;99.90;;;;;;4975408;28;20183;-77
2021/12/27 04:25:46;;;;;;;4.28;2.50;;;-12.40;99.90;;;;;;4976362;28;20134;-78
2021/12/27 04:28:12;;;;;;;4.00;2.38;;;-12.30;99.90;;;;;;4974545;28;20433;-78
2021/12/27 04:30:38;;;;;;;3.47;2.55;;;-12.30;99.90;;;;;;4974735;28;20433;-77
2021/12/27 04:33:04;;;;;;;3.15;2.03;;;-12.20;99.90;;;;;;4975608;28;20086;-78
2021/12/27 04:35:31;;;;;;;4.68;2.22;;;-12.20;99.90;;;;;;4975754;28;20031;-77
2021/12/27 04:37:57;;;;;;;4.20;2.40;;;-12.30;99.90;;;;;;4975522;28;20050;-77
2021/12/27 04:40:28;;;;;;;4.57;2.38;;;-12.30;99.90;;;;;;4975464;28;20088;-78
2021/12/27 04:43:01;;;;;;;3.03;2.10;;;-12.30;99.90;;;;;;4975705;28;20371;-77
2021/12/27 04:45:27;;;;;;;2.15;1.95;;;-12.40;99.90;;;;;;4975606;28;20122;-76
2021/12/27 04:47:52;;;;;;;2.80;2.15;;;-12.40;99.90;;;;;;4975701;28;20066;-75
2021/12/27 04:50:19;;;;;;;4.40;2.75;;;-12.40;99.90;;;;;;4975405;28;20023;-74
2021/12/27 04:52:47;;;;;;;3.28;2.20;;;-12.40;99.90;;;;;;4975457;28;20027;-74
2021/12/27 04:55:12;;;;;;;4.68;2.28;;;-12.40;99.90;;;;;;4975227;28;20034;-74
2021/12/27 04:57:38;;;;;;;7.45;2.15;;;-12.40;99.90;;;;;;4975549;28;20027;-74
2021/12/27 05:00:06;;;;;;;4.10;2.38;;;-12.40;99.90;;;;;;4975361;28;20035;-74
2021/12/27 05:02:31;;;;;;;3.10;2.15;;;-12.50;99.90;;;;;;4975353;28;20224;-74
2021/12/27 05:04:57;;;;;;;4.40;2.08;;;-12.50;99.90;;;;;;4973950;28;20478;-77
2021/12/27 05:07:23;;;;;;;2.10;1.90;;;-12.50;99.90;;;;;;4974941;28;20102;-77
2021/12/27 05:09:49;;;;;;;2.70;2.20;;;-12.50;99.90;;;;;;4975149;28;20027;-77
2021/12/27 05:12:14;;;;;;;2.25;1.95;;;-12.50;99.90;;;;;;4974950;28;20082;-77
2021/12/27 05:14:40;;;;;;;3.50;2.30;;;-12.50;99.90;;;;;;4975209;28;20039;-77
2021/12/27 05:17:06;;;;;;;5.88;2.53;;;-12.50;99.90;;;;;;4974965;28;20450;-75
2021/12/27 05:19:31;;;;;;;2.70;2.08;;;-12.50;99.90;;;;;;4974829;28;20611;-75
2021/12/27 05:21:57;;;;;;;5.28;2.40;;;-12.50;99.90;;;;;;4975169;28;20037;-75
2021/12/27 05:24:26;;;;;;;3.25;2.42;;;-12.50;99.90;;;;;;4974642;28;20022;-75
2021/12/27 05:26:52;;;;;;;5.63;2.30;;;-12.50;99.90;;;;;;4973660;28;20038;-76
2021/12/27 05:29:18;;;;;;;4.63;2.50;;;-12.60;99.90;;;;;;4974781;28;20515;-74
2021/12/27 05:31:44;;;;;;;5.90;2.70;;;-12.60;99.90;;;;;;4974702;28;20035;-76
2021/12/27 05:34:10;;;;;;;3.60;2.03;;;-12.60;99.90;;;;;;4974282;28;20027;-73
2021/12/27 05:36:37;;;;;;;4.70;2.20;;;-12.60;99.90;;;;;;4974289;28;20537;-73
2021/12/27 05:39:03;;;;;;;3.03;2.45;;;-12.60;99.90;;;;;;4974656;28;20036;-72
2021/12/27 05:41:29;;;;;;;3.25;2.47;;;-12.20;99.90;;;;;;4974474;28;20022;-73
2021/12/27 05:43:55;;;;;;;3.63;2.17;;;-11.80;99.90;;;;;;4969787;28;20024;-74
2021/12/27 05:46:21;;;;;;;4.90;2.30;;;-12.00;99.90;;;;;;4954873;28;20025;-69
2021/12/27 05:48:46;;;;;;;4.88;2.20;;;-12.20;99.90;;;;;;4954841;29;20060;-73
2021/12/27 05:51:12;;;;;;;5.80;2.38;;;-12.30;99.90;;;;;;4954300;29;20502;-70
2021/12/27 05:53:38;;;;;;;8.15;2.58;;;-12.40;99.90;;;;;;4954221;29;20110;-71
2021/12/27 05:56:04;;;;;;;8.93;3.95;;;-12.40;99.90;;;;;;4954347;29;20114;-73
2021/12/27 05:58:29;;;;;;;4.30;2.50;;;-12.40;99.90;;;;;;4954460;29;20027;-70
2021/12/27 06:00:55;;;;;;;3.00;2.38;;;-12.40;99.90;;;;;;4953793;29;20031;-71
2021/12/27 06:03:21;;;;;;;4.20;2.03;;;-12.30;99.90;;;;;;4953603;29;20031;-71
2021/12/27 06:05:47;;;;;;;4.45;2.20;;;-12.40;99.90;;;;;;4953352;28;21306;-71
2021/12/27 06:08:12;;;;;;;4.15;2.17;;;-12.40;99.90;;;;;;4953540;28;20029;-71
2021/12/27 06:10:38;;;;;;;9.57;2.67;;;-12.50;99.90;;;;;;4953725;29;20031;-71
2021/12/27 06:13:04;;;;;;;3.05;2.22;;;-12.50;99.90;;;;;;4954256;29;20042;-71
2021/12/27 06:15:30;;;;;;;4.93;3.15;;;-12.50;99.90;;;;;;4953108;28;20436;-73
2021/12/27 06:17:56;;;;;;;5.10;2.40;;;-12.50;99.90;;;;;;4953493;28;20557;-71
2021/12/27 06:20:21;;;;;;;2.50;2.30;;;-12.50;99.90;;;;;;4953704;28;20061;-71
2021/12/27 06:22:52;;;;;;;2.65;1.88;;;-12.50;99.90;;;;;;4953765;29;20026;-71
2021/12/27 06:25:18;;;;;;;3.42;1.90;;;-12.50;99.90;;;;;;4953564;28;20066;-71
2021/12/27 06:27:44;;;;;;;2.75;2.17;;;-12.40;99.90;;;;;;4953941;28;20074;-77
2021/12/27 06:30:12;;;;;;;3.53;2.42;;;-12.40;99.90;;;;;;4954559;29;20062;-70
2021/12/27 06:32:38;;;;;;;5.95;2.05;;;-12.40;99.90;;;;;;4954250;29;20051;-73
2021/12/27 06:35:05;;;;;;;4.35;2.72;;;-12.10;99.90;;;;;;4954508;29;20075;-72
2021/12/27 06:37:31;;;;;;;2.45;2.20;;;-12.00;99.90;;;;;;4954088;29;20043;-72
2021/12/27 06:39:57;;;;;;;2.22;1.88;;;-12.20;99.90;;;;;;4954415;28;20442;-72
2021/12/27 06:42:23;;;;;;;3.53;2.17;;;-12.30;99.90;;;;;;4954300;29;20027;-72
2021/12/27 06:44:49;;;;;;;4.18;2.20;;;-12.40;99.90;;;;;;4953332;28;20625;-73
2021/12/27 06:47:15;;;;;;;2.30;2.10;;;-12.40;99.90;;;;;;4954222;29;20110;-73
2021/12/27 06:49:42;;;;;;;2.80;2.20;;;-12.10;99.90;;;;;;4953972;29;20415;-72
2021/12/27 06:52:08;;;;;;;2.58;2.17;;;-12.10;99.90;;;;;;4953935;29;20491;-72
2021/12/27 06:54:34;;;;;;;2.40;2.20;;;-12.20;99.90;;;;;;4953827;29;20509;-73
2021/12/27 06:57:00;;;;;;;4.13;2.15;;;-12.30;99.90;;;;;;4953906;28;20028;-72
2021/12/27 06:59:27;;;;;;;2.50;2.00;;;-12.40;99.90;;;;;;4953773;29;20046;-72
2021/12/27 07:01:54;;;;;;;4.68;2.35;;;-12.50;99.90;;;;;;4954064;29;20383;-75
2021/12/27 07:04:20;;;;;;;2.22;2.10;;;-12.50;99.90;;;;;;4952909;29;20475;-75
2021/12/27 07:06:45;;;;;;;4.40;2.30;;;-12.50;99.90;;;;;;4954130;29;20039;-74
2021/12/27 07:09:11;;;;;;;2.00;1.83;;;-12.60;99.90;;;;;;4953935;29;20172;-71
2021/12/27 07:11:37;;;;;;;2.83;2.15;;;-12.60;99.90;;;;;;4954127;29;20027;-71
2021/12/27 07:14:04;;;;;;;3.92;2.20;;;-12.60;99.90;;;;;;4953880;29;20031;-70
2021/12/27 07:16:30;;;;;;;2.72;2.20;;;-12.60;99.90;;;;;;4953760;29;20024;-71
2021/12/27 07:18:56;;;;;;;2.67;1.88;;;-12.60;99.90;;;;;;4951625;29;20026;-70
2021/12/27 07:21:21;;;;;;;2.08;1.88;;;-12.70;99.90;;;;;;4944994;29;20047;-72
2021/12/27 07:23:47;;;;;;;3.08;2.20;;;-12.70;99.90;;;;;;4934652;28;20098;-70
2021/12/27 07:26:13;;;;;;;4.93;2.88;;;-12.70;99.90;;;;;;4934551;29;20479;-71
2021/12/27 07:28:39;;;;;;;4.65;2.05;;;-12.70;99.90;;;;;;4934922;29;20087;-71
2021/12/27 07:31:06;;;;;;;3.03;2.13;;;-12.70;99.90;;;;;;4934622;28;20032;-70
2021/12/27 07:33:31;;;;;;;3.30;2.05;;;-12.70;99.90;;;;;;4940798;29;20065;-70
2021/12/27 07:35:57;;;;;;;3.05;2.38;;;-12.70;99.90;;;;;;4953946;28;20466;-70
2021/12/27 07:38:23;;;;;;;3.65;2.50;;;-12.70;99.90;;;;;;4940764;28;20079;-73
2021/12/27 07:40:48;;;;;;;2.78;1.90;;;-12.70;99.90;;;;;;4934641;29;20083;-74
2021/12/27 07:43:14;;;;;;;2.67;2.03;;;-12.70;99.90;;;;;;4940949;29;20111;-73
2021/12/27 07:45:40;;;;;;;3.58;2.40;;;-12.80;99.90;;;;;;4948122;28;20474;-74
2021/12/27 07:48:07;;;;;;;3.85;2.28;;;-12.80;99.90;;;;;;4949517;29;20082;-72
2021/12/27 07:50:34;;;;;;;2.97;2.42;;;-12.80;99.90;;;;;;4951102;28;20043;-72
2021/12/27 07:53:00;;;;;;;3.70;2.05;;;-12.80;99.90;;;;;;4953551;28;20027;-74
2021/12/27 07:55:27;;;;;;;2.55;2.25;;;-12.80;99.90;;;;;;4947558;28;20391;-77
2021/12/27 07:57:55;;;;;;;4.70;2.13;;;-12.90;99.90;;;;;;4952829;28;20032;-71
2021/12/27 08:00:21;;;;;;;3.40;2.45;;;-12.90;99.90;;;;;;4957023;28;20059;-70
2021/12/27 08:02:46;;;;;;;2.83;2.17;;;-13.00;99.90;;;;;;4957142;28;20050;-70
2021/12/27 08:05:14;;;;;;;3.03;2.45;;;-12.90;99.90;;;;;;4955615;28;20031;-72
2021/12/27 08:07:41;;;;;;;4.15;1.98;;;-12.90;99.90;;;;;;4951921;28;20101;-74
2021/12/27 08:10:09;;;;;;;2.92;2.47;;;-12.90;99.90;;;;;;4953327;29;20039;-73
2021/12/27 08:12:35;;;;;;;2.35;2.03;;;-13.00;99.90;;;;;;4957167;28;20034;-72
2021/12/27 08:15:02;;;;;;;2.38;2.10;;;-13.00;99.90;;;;;;4948232;28;20038;-73
2021/12/27 08:17:28;;;;;;;3.20;2.53;;;-13.00;99.90;;;;;;4937780;29;20028;-72
2021/12/27 08:19:54;;;;;;;4.35;2.22;;;-12.90;99.90;;;;;;4954407;29;20031;-68
2021/12/27 08:22:20;;;;;;;4.15;2.28;;;-12.90;99.90;;;;;;4956539;28;20075;-68
2021/12/27 08:24:45;;;;;;;2.90;2.30;;;-12.90;99.90;;;;;;4956760;28;20552;-72
2021/12/27 08:27:11;;;;;;;3.97;2.08;;;-12.90;99.90;;;;;;4941091;28;20034;-71
2021/12/27 08:29:37;;;;;;;4.20;2.10;;;-12.90;99.90;;;;;;4945128;29;20605;-71
2021/12/27 08:32:04;;;;;;;3.08;2.42;;;-12.90;99.90;;;;;;4944955;29;20472;-71
2021/12/27 08:34:31;;;;;;;4.18;2.38;;;-13.00;99.90;;;;;;4947080;29;20379;-71
2021/12/27 08:36:58;;;;;;;2.53;2.08;;;-13.00;99.90;;;;;;4939385;29;20047;-70
2021/12/27 08:39:24;;;;;;;6.80;2.40;;;-13.00;99.90;;;;;;4937056;29;20063;-73
2021/12/27 08:41:50;;;;;;;2.50;2.30;;;-12.80;99.90;;;;;;4962930;28;20035;-73
2021/12/27 08:44:16;;;;;;;2.45;2.10;;;-11.00;99.90;;;;;;4954108;29;20035;-70
2021/12/27 08:46:43;;;;;;;3.65;2.67;;;-8.80;99.90;;;;;;4956552;28;20027;-70
2021/12/27 08:49:09;;;;;;;3.90;2.92;;;-8.20;99.90;;;;;;4956470;28;20027;-69
2021/12/27 08:51:35;;;;;;;3.97;2.47;;;-9.50;99.90;;;;;;4956354;28;20372;-69
2021/12/27 08:54:03;;;;;;;2.40;2.20;;;-10.50;99.90;;;;;;4956134;28;20090;-69
2021/12/27 08:56:29;;;;;;;2.75;2.47;;;-11.20;99.90;;;;;;4954840;29;20432;-69
2021/12/27 08:58:55;;;;;;;4.22;2.60;;;-11.80;99.90;;;;;;4956100;28;20475;-69
2021/12/27 09:01:21;;;;;;;2.72;2.30;;;-12.10;99.90;;;;;;4955925;28;20027;-69
2021/12/27 09:03:47;;;;;;;4.70;2.20;;;-12.30;99.90;;;;;;4956026;28;20040;-70
2021/12/27 09:06:14;;;;;;;4.07;2.10;;;-12.30;99.90;;;;;;4955932;29;20027;-70
2021/12/27 09:08:40;;;;;;;2.78;2.08;;;-12.40;99.90;;;;;;4955130;28;20027;-69
2021/12/27 09:11:07;;;;;;;2.88;2.35;;;-12.50;99.90;;;;;;4955992;28;20035;-69
2021/12/27 09:13:36;;;;;;;3.25;2.40;;;-12.60;99.90;;;;;;4954495;29;20391;-69
2021/12/27 09:16:03;;;;;;;3.35;2.55;;;-12.70;99.90;;;;;;4955860;28;20039;-69
2021/12/27 09:18:31;;;;;;;2.88;2.28;;;-12.80;99.90;;;;;;4955564;28;20480;-69
2021/12/27 09:20:57;;;;;;;2.90;2.35;;;-12.80;99.90;;;;;;4955823;28;20028;-69
2021/12/27 09:23:23;;;;;;;2.50;2.17;;;-12.90;99.90;;;;;;4955797;28;20030;-69
2021/12/27 09:25:49;;;;;;;3.60;2.45;;;-13.00;99.90;;;;;;4955900;29;20019;-69
2021/12/27 09:28:15;;;;;;;5.93;2.50;;;-13.00;99.90;;;;;;4955872;28;20031;-69
2021/12/27 09:30:41;;;;;;;3.55;2.20;;;-13.10;99.90;;;;;;4955555;29;20030;-69
2021/12/27 09:33:07;;;;;;;3.03;2.15;;;-13.00;99.90;;;;;;4955751;28;20031;-69
2021/12/27 09:35:33;;;;;;;3.05;2.45;;;-13.10;99.90;;;;;;4955278;28;20039;-69
2021/12/27 09:37:59;;;;;;;5.22;2.50;;;-13.00;99.90;;;;;;4955239;28;20098;-69
2021/12/27 09:40:26;;;;;;;4.25;2.25;;;-13.10;99.90;;;;;;4955255;28;20498;-69
2021/12/27 09:42:52;;;;;;;3.53;2.30;;;-13.10;99.90;;;;;;4955384;28;20058;-69
2021/12/27 09:45:19;;;;;;;2.58;2.33;;;-13.00;99.90;;;;;;4955394;28;20390;-69
2021/12/27 09:47:47;;;;;;;3.13;2.50;;;-13.10;99.90;;;;;;4955588;28;20019;-70
2021/12/27 09:50:18;;;;;;;3.05;2.67;;;-13.10;99.90;;;;;;4955413;28;20089;-69
2021/12/27 09:52:44;;;;;;;3.30;2.47;;;-13.10;99.90;;;;;;4946544;28;20031;-70
2021/12/27 09:55:11;;;;;;;4.25;2.60;;;-12.60;99.90;;;;;;4936217;29;20381;-70
2021/12/27 09:57:37;;;;;;;6.85;2.65;;;-12.50;99.90;;;;;;4934681;29;20039;-69
2021/12/27 10:00:08;;;;;;;2.72;2.22;;;-12.50;99.90;;;;;;4936116;29;20034;-69
2021/12/27 10:02:35;;;;;;;7.25;2.88;;;-12.10;99.90;;;;;;4935692;29;20039;-69
2021/12/27 10:05:02;;;;;;;2.97;2.50;;;-11.70;99.90;;;;;;4935776;29;20036;-69
2021/12/27 10:07:29;;;;;;;3.97;2.40;;;-11.90;99.90;;;;;;4934384;29;20034;-70
2021/12/27 10:09:58;;;;;;;3.95;2.28;;;-12.30;99.90;;;;;;4935639;29;20043;-69
2021/12/27 10:12:24;;;;;;;1.80;1.70;;;-12.50;99.90;;;;;;4935547;29;20031;-70
2021/12/27 10:14:59;;;;;;;2.53;1.95;;;-12.70;99.90;;;;;;4935355;29;20039;-70
2021/12/27 10:17:25;;;;;;;3.22;2.28;;;-12.90;99.90;;;;;;4946010;29;20035;-69
2021/12/27 10:19:53;;;;;;;2.42;2.13;;;-13.00;99.90;;;;;;4946523;28;20095;-70
2021/12/27 10:22:20;;;;;;;3.60;2.20;;;-13.00;99.90;;;;;;4942433;28;20028;-70
2021/12/27 10:24:50;;;;;;;2.80;2.28;;;-13.20;99.90;;;;;;4935337;29;20388;-67
2021/12/27 10:27:17;;;;;;;2.38;2.17;;;-13.20;99.90;;;;;;4944014;29;20035;-67
2021/12/27 10:29:43;;;;;;;2.20;2.00;;;-13.30;99.90;;;;;;4942779;28;20055;-68
2021/12/27 10:32:14;;;;;;;5.03;2.20;;;-13.30;99.90;;;;;;4944491;28;20055;-68
2021/12/27 10:34:47;;;;;;;3.03;2.35;;;-13.30;99.90;;;;;;4944613;29;20430;-67
2021/12/27 10:37:25;;;;;;;5.07;2.05;;;-13.30;99.90;;;;;;4953556;29;20047;-67
2021/12/27 10:39:56;;;;;;;2.97;2.13;;;-13.40;99.90;;;;;;4954310;28;20031;-67
2021/12/27 10:42:27;;;;;;;1.92;1.83;;;-13.30;99.90;;;;;;4954502;28;20054;-67
2021/12/27 10:44:58;;;;;;;2.22;2.00;;;-13.30;99.90;;;;;;4954339;28;20051;-67
2021/12/27 10:47:34;;;;;;;3.08;2.60;;;-13.30;99.90;;;;;;4954141;28;20035;-68
2021/12/27 10:50:12;;;;;;;3.05;2.30;;;-13.20;99.90;;;;;;4954455;28;20050;-68
2021/12/27 10:53:03;;;;;;;4.25;2.65;;;-13.20;99.90;;;;;;4954068;28;20074;-68
2021/12/27 10:55:34;;;;;;;;;;;-13.30;99.90;;;;;;4953858;29;20105;-68
2021/12/27 10:58:23;;;;;;;5.07;2.67;;;-13.20;99.90;;;;;;4953595;28;19907;-68
2021/12/27 11:01:02;;;;;;;4.07;2.22;;;-13.20;99.90;;;;;;4954328;28;20027;-68
2021/12/27 11:03:36;;;;;;;3.08;1.95;;;-13.20;99.90;;;;;;4954165;28;20086;-68
2021/12/27 11:06:05;;;;;;;7.43;2.95;;;-13.30;99.90;;;;;;4952891;29;20019;-68
2021/12/27 11:08:32;;;;;;;5.63;2.55;;;-13.30;99.90;;;;;;4953912;28;20038;-68
2021/12/27 11:10:59;;;;;;;2.70;2.40;;;-13.40;99.90;;;;;;4953911;28;20118;-68
2021/12/27 11:13:26;;;;;;;5.35;2.45;;;-13.40;99.90;;;;;;4953912;28;20390;-68
2021/12/27 11:15:52;;;;;;;5.45;2.70;;;-13.40;99.90;;;;;;4954093;28;20040;-69
2021/12/27 11:18:18;;;;;;;2.90;2.03;;;-13.30;99.90;;;;;;4953929;28;20497;-68
2021/12/27 11:20:47;;;;;;;4.07;2.22;;;-13.40;99.90;;;;;;4954142;28;20027;-68
2021/12/27 11:23:14;;;;;;;4.65;2.70;;;-13.40;99.90;;;;;;4953953;28;20063;-68
2021/12/27 11:25:43;;;;;;;4.45;2.58;;;-13.40;99.90;;;;;;4952368;29;20049;-68
2021/12/27 11:28:35;;;;;;;3.22;2.53;;;-13.30;99.90;;;;;;4946613;28;20028;-69
2021/12/27 11:31:13;;;;;;;3.50;2.28;;;-13.30;99.90;;;;;;4944061;28;20574;-69
2021/12/27 11:33:59;;;;;;;5.18;2.90;;;-13.30;99.90;;;;;;4946470;29;20595;-69
2021/12/27 11:36:49;;;;;;;3.85;2.25;;;-13.40;99.90;;;;;;4947419;29;20032;-69
2021/12/27 11:39:27;;;;;;;3.22;2.33;;;-13.40;99.90;;;;;;4947952;28;20463;-69
2021/12/27 11:42:08;;;;;;;4.68;2.20;;;-13.30;99.90;;;;;;4947182;29;20059;-69
2021/12/27 11:44:58;;;;;;;4.40;2.67;;;-13.40;99.90;;;;;;4943877;29;20087;-68
2021/12/27 11:47:32;;;;;;;2.80;2.53;;;-13.40;99.90;;;;;;4945821;29;20542;-69
2021/12/27 11:50:02;;;;;;;3.50;2.28;;;-13.40;99.90;;;;;;4947655;29;20395;-69
2021/12/27 11:52:38;;;;;;;3.00;2.50;;;-13.40;99.90;;;;;;4946297;28;20027;-68
2021/12/27 11:55:10;;;;;;;2.30;2.10;;;-13.30;99.90;;;;;;4946359;28;20090;-68
2021/12/27 11:57:55;;;;;;;1.98;1.55;;;-13.40;99.90;;;;;;4947326;28;20379;-69
2021/12/27 12:00:24;;;;;;;5.22;2.38;;;-13.40;99.90;;;;;;4949663;29;20505;-70
2021/12/27 12:02:54;;;;;;;4.32;2.88;;;-13.50;99.90;;;;;;4966337;28;20034;-68
2021/12/27 12:05:43;;;;;;;4.15;2.75;;;-13.50;99.90;;;;;;4956183;28;20372;-62
2021/12/27 12:08:12;;;;;;;3.90;2.92;;;-13.40;99.90;;;;;;4942570;29;20483;-62
2021/12/27 12:11:10;;;;;;;4.88;2.90;;;-13.30;99.90;;;;;;4939883;29;20087;-63
2021/12/27 12:13:44;;;;;;;5.20;2.53;;;-13.30;99.90;;;;;;4954683;29;20030;-63
2021/12/27 12:16:15;;;;;;;2.50;2.30;;;-13.30;99.90;;;;;;4956685;28;20031;-63
2021/12/27 12:18:42;;;;;;;3.10;2.17;;;-13.40;99.90;;;;;;4956881;28;20027;-69
2021/12/27 12:21:33;;;;;;;3.60;2.30;;;-13.40;99.90;;;;;;4952318;28;20082;-67
2021/12/27 12:24:18;;;;;;;2.55;2.33;;;-13.40;99.90;;;;;;4947072;29;20078;-68
2021/12/27 12:27:10;;;;;;;3.58;2.47;;;-13.40;99.90;;;;;;4947349;28;20027;-68
2021/12/27 12:29:41;;;;;;;3.85;2.47;;;-13.40;99.90;;;;;;4949580;29;20495;-68
2021/12/27 12:32:10;;;;;;;4.18;2.85;;;-13.40;99.90;;;;;;4955482;29;20031;-68
2021/12/27 12:34:38;;;;;;;3.75;2.50;;;-13.40;99.90;;;;;;4956363;28;20031;-68
2021/12/27 12:37:07;;;;;;;3.25;2.58;;;-13.50;99.90;;;;;;4956434;28;20043;-68
2021/12/27 12:39:40;;;;;;;3.95;2.70;;;-13.40;99.90;;;;;;4956507;28;20430;-68
2021/12/27 12:42:15;;;;;;;1.38;1.30;;;-13.40;99.90;;;;;;4955601;28;20034;-68
2021/12/27 12:44:59;;;;;;;2.50;2.30;;;-13.50;99.90;;;;;;4956169;28;20034;-68
2021/12/27 12:47:29;;;;;;;3.03;2.03;;;-13.50;99.90;;;;;;4956652;28;20079;-69
2021/12/27 12:49:55;;;;;;;2.78;2.15;;;-13.50;99.90;;;;;;4956300;28;20035;-68
2021/12/27 12:52:21;;;;;;;3.15;2.42;;;-13.60;99.90;;;;;;4954984;29;20118;-68
2021/12/27 12:54:48;;;;;;;3.75;3.00;;;-13.60;99.90;;;;;;4956203;28;20118;-68
2021/12/27 12:57:17;;;;;;;4.10;2.67;;;-13.50;99.90;;;;;;4956220;29;20455;-68
2021/12/27 12:59:51;;;;;;;3.95;2.50;;;-13.50;99.90;;;;;;4955911;28;20027;-67
2021/12/27 13:02:25;;;;;;;3.65;2.42;;;-13.60;99.90;;;;;;4956231;28;20059;-67
2021/12/27 13:04:57;;;;;;;3.78;2.42;;;-13.50;99.90;;;;;;4956206;28;20036;-67
2021/12/27 13:07:39;;;;;;;4.28;2.60;;;-13.50;99.90;;;;;;4955123;29;20452;-68
2021/12/27 13:10:33;;;;;;;2.83;2.05;;;-13.50;99.90;;;;;;4955964;28;20118;-68
2021/12/27 13:13:00;;;;;;;3.03;2.25;;;-13.50;99.90;;;;;;4956202;28;20019;-69
2021/12/27 13:15:30;;;;;;;4.53;2.67;;;-13.60;99.90;;;;;;4955805;28;20035;-67
2021/12/27 13:18:17;;;;;;;2.38;1.90;;;-8.90;99.90;;;;;;4955791;28;20027;-67
2021/12/27 13:20:44;;;;;;;5.20;2.50;;;-8.90;99.90;;;;;;4954733;29;20038;-67
2021/12/27 13:23:11;;;;;;;2.55;2.30;;;-10.50;99.90;;;;;;4970607;28;20031;-67
2021/12/27 13:25:51;;;;;;;2.53;2.08;;;-11.50;99.90;;;;;;4955515;28;20038;-67
2021/12/27 13:28:33;;;;;;;2.47;1.80;;;-12.10;99.90;;;;;;4955677;29;20098;-66
2021/12/27 13:31:01;;;;;;;3.47;2.75;;;-12.60;99.90;;;;;;4955618;28;20034;-67
2021/12/27 13:33:32;;;;;;;3.85;2.25;;;-12.70;99.90;;;;;;4955778;28;20034;-66
2021/12/27 13:35:59;;;;;;;3.10;2.47;;;-12.90;99.90;;;;;;4955570;28;20093;-67
2021/12/27 13:38:31;;;;;;;3.08;2.33;;;-13.00;99.90;;;;;;4955206;29;20511;-67
2021/12/27 13:41:27;;;;;;;1.88;1.75;;;-13.10;99.90;;;;;;4955333;28;20027;-67
2021/12/27 13:43:59;;;;;;;2.95;2.08;;;-13.20;99.90;;;;;;4951128;29;20557;-66
2021/12/27 13:46:28;;;;;;;3.67;2.40;;;-12.60;99.90;;;;;;4955206;28;20032;-66